createdAt,value
2022-08-03T00:00:30.146Z,87924.63
2022-08-03T00:03:12.240Z,87926.16
2022-08-03T00:05:39.573Z,87922.38
2022-08-03T00:08:06.810Z,87923.16
2022-08-03T00:10:34.136Z,87925.47
2022-08-03T00:13:01.727Z,87924.00
2022-08-03T00:15:29.063Z,87923.63
2022-08-03T00:17:56.288Z,87921.03
2022-08-03T00:20:23.752Z,87919.53
2022-08-03T00:22:51.504Z,87918.41
2022-08-03T00:25:20.057Z,87921.50
2022-08-03T00:27:48.338Z,87916.19
2022-08-03T00:30:17.655Z,87911.28
2022-08-03T00:32:47.216Z,87911.28
2022-08-03T00:35:35.157Z,87917.75
2022-08-03T00:38:01.981Z,87906.78
2022-08-03T00:40:37.554Z,87911.38
2022-08-03T00:43:07.342Z,87910.56
2022-08-03T00:45:38.300Z,87915.94
2022-08-03T00:48:29.458Z,87912.56
2022-08-03T00:50:58.817Z,87907.28
2022-08-03T00:53:27.772Z,87904.25
2022-08-03T00:55:55.114Z,87905.41
2022-08-03T00:58:24.054Z,87903.53
2022-08-03T01:00:51.570Z,87899.72
2022-08-03T01:03:19.106Z,87903.16
2022-08-03T01:05:52.498Z,87897.88
2022-08-03T01:08:59.422Z,87897.16
2022-08-03T01:12:01.275Z,87899.06
2022-08-03T01:14:46.048Z,87895.66
2022-08-03T01:18:03.476Z,87899.06
2022-08-03T01:20:36.992Z,87891.88
2022-08-03T01:23:28.976Z,87893.78
2022-08-03T01:26:52.880Z,87897.63
2022-08-03T01:30:01.103Z,87887.41
2022-08-03T01:33:01.016Z,87885.13
2022-08-03T01:36:07.644Z,87892.72
2022-08-03T01:38:42.303Z,87877.94
2022-08-03T01:41:18.886Z,87885.91
2022-08-03T01:44:26.429Z,87885.56
2022-08-03T01:46:40.662Z,87875.69
2022-08-03T01:49:16.940Z,87883.31
2022-08-03T01:52:03.410Z,87879.13
2022-08-03T01:54:40.719Z,87871.19
2022-08-03T01:57:09.989Z,87873.88
2022-08-03T01:59:40.197Z,87876.53
2022-08-03T02:02:32.171Z,87873.88
2022-08-03T02:05:00.846Z,87870.50
2022-08-03T02:07:32.125Z,87868.22
2022-08-03T02:10:01.147Z,87878.47
2022-08-03T02:12:31.744Z,87881.53
2022-08-03T02:15:01.505Z,87874.69
2022-08-03T02:17:39.564Z,87873.97
2022-08-03T02:20:11.848Z,87876.25
2022-08-03T02:22:44.774Z,87877.78
2022-08-03T02:25:15.446Z,87875.91
2022-08-03T02:28:27.430Z,87874.00
2022-08-03T02:30:57.200Z,87872.16
2022-08-03T02:33:49.385Z,87876.34
2022-08-03T02:36:31.365Z,87871.78
2022-08-03T02:39:01.747Z,87877.50
2022-08-03T02:41:38.320Z,87876.75
2022-08-03T02:44:10.978Z,87872.22
2022-08-03T02:46:44.102Z,87881.72
2022-08-03T02:49:50.054Z,87879.47
2022-08-03T02:52:04.887Z,87873.38
2022-08-03T02:54:34.930Z,87879.09
2022-08-03T02:57:03.337Z,87869.22
2022-08-03T02:59:32.423Z,87871.53
2022-08-03T03:02:01.963Z,87874.19
2022-08-03T03:04:33.045Z,87875.31
2022-08-03T03:07:01.949Z,87881.41
2022-08-03T03:09:40.372Z,87880.66
2022-08-03T03:12:12.638Z,87878.00
2022-08-03T03:14:40.775Z,87876.47
2022-08-03T03:17:12.005Z,87881.06
2022-08-03T03:19:41.461Z,87876.91
2022-08-03T03:22:10.168Z,87881.09
2022-08-03T03:24:41.326Z,87877.28
2022-08-03T03:27:09.171Z,87873.13
2022-08-03T03:29:39.388Z,87875.00
2022-08-03T03:32:09.113Z,87869.31
2022-08-03T03:34:37.614Z,87875.03
2022-08-03T03:37:05.206Z,87877.28
2022-08-03T03:39:32.606Z,87871.97
2022-08-03T03:42:01.790Z,87872.75
2022-08-03T03:44:30.501Z,87875.78
2022-08-03T03:47:32.353Z,87876.53
2022-08-03T03:50:03.695Z,87870.09
2022-08-03T03:52:32.457Z,87875.41
2022-08-03T03:55:01.170Z,87871.25
2022-08-03T03:57:34.102Z,87874.66
2022-08-03T04:00:01.408Z,87882.25
2022-08-03T04:02:28.687Z,87877.34
2022-08-03T04:04:55.948Z,87885.28
2022-08-03T04:07:34.784Z,87883.44
2022-08-03T04:10:14.181Z,87887.97
2022-08-03T04:12:50.246Z,87886.47
2022-08-03T04:15:22.924Z,87883.84
2022-08-03T04:17:56.083Z,87891.03
2022-08-03T04:20:26.436Z,87886.09
2022-08-03T04:22:58.294Z,87891.81
2022-08-03T04:25:31.090Z,87892.56
2022-08-03T04:28:08.244Z,87892.97
2022-08-03T04:30:53.700Z,87894.47
2022-08-03T04:33:22.846Z,87888.78
2022-08-03T04:36:01.860Z,87892.56
2022-08-03T04:38:40.471Z,87899.78
2022-08-03T04:41:09.276Z,87896.38
2022-08-03T04:43:39.373Z,87892.97
2022-08-03T04:46:08.741Z,87889.94
2022-08-03T04:48:36.246Z,87889.16
2022-08-03T04:51:03.737Z,87894.47
2022-08-03T04:53:31.486Z,87893.72
2022-08-03T04:56:06.105Z,87894.84
2022-08-03T04:58:33.615Z,87897.09
2022-08-03T05:01:01.216Z,87901.66
2022-08-03T05:03:28.372Z,87894.84
2022-08-03T05:06:02.012Z,87894.84
2022-08-03T05:08:46.159Z,87901.28
2022-08-03T05:11:26.727Z,87900.16
2022-08-03T05:13:54.037Z,87904.72
2022-08-03T05:16:21.784Z,87906.22
2022-08-03T05:18:49.050Z,87907.34
2022-08-03T05:21:16.441Z,87911.53
2022-08-03T05:23:45.081Z,87905.44
2022-08-03T05:26:12.517Z,87908.47
2022-08-03T05:28:40.178Z,87905.81
2022-08-03T05:31:19.423Z,87905.09
2022-08-03T05:33:46.617Z,87908.47
2022-08-03T05:36:13.949Z,87908.47
2022-08-03T05:38:41.208Z,87909.59
2022-08-03T05:41:20.940Z,87905.78
2022-08-03T05:43:54.382Z,87905.00
2022-08-03T05:46:23.292Z,87902.72
2022-08-03T05:48:50.769Z,87906.50
2022-08-03T05:51:18.325Z,87906.88
2022-08-03T05:53:46.002Z,87896.63
2022-08-03T05:56:16.042Z,87893.53
2022-08-03T05:58:46.430Z,87893.88
2022-08-03T06:01:14.250Z,87892.31
2022-08-03T06:03:41.613Z,87893.41
2022-08-03T06:06:09.062Z,87892.56
2022-08-03T06:08:36.669Z,87888.72
2022-08-03T06:11:05.010Z,87890.16
2022-08-03T06:13:32.237Z,87887.44
2022-08-03T06:15:59.546Z,87890.41
2022-08-03T06:18:26.814Z,87891.09
2022-08-03T06:20:55.026Z,87882.69
2022-08-03T06:23:25.306Z,87884.91
2022-08-03T06:26:10.144Z,87884.06
2022-08-03T06:28:51.563Z,87882.03
2022-08-03T06:31:23.211Z,87885.75
2022-08-03T06:34:34.182Z,87889.47
2022-08-03T06:36:37.971Z,87881.38
2022-08-03T06:39:05.868Z,87891.19
2022-08-03T06:41:37.598Z,87879.28
2022-08-03T06:44:12.841Z,87872.31
2022-08-03T06:46:40.395Z,87875.66
2022-08-03T06:49:08.211Z,87870.59
2022-08-03T06:52:03.602Z,87871.63
2022-08-03T06:54:23.049Z,87876.81
2022-08-03T06:56:50.483Z,87875.94
2022-08-03T07:00:08.445Z,87871.22
2022-08-03T07:02:05.555Z,87876.44
2022-08-03T07:04:32.730Z,87867.16
2022-08-03T07:06:59.984Z,87867.84
2022-08-03T07:09:27.445Z,87862.75
2022-08-03T07:11:55.252Z,87864.91
2022-08-03T07:14:22.770Z,87873.94
2022-08-03T07:16:50.129Z,87866.59
2022-08-03T07:19:17.381Z,87868.03
2022-08-03T07:21:44.577Z,87862.50
2022-08-03T07:24:11.985Z,87860.88
2022-08-03T07:26:39.191Z,87861.09
2022-08-03T07:29:14.739Z,87856.06
2022-08-03T07:31:43.034Z,87864.72
2022-08-03T07:34:10.252Z,87857.72
2022-08-03T07:36:37.950Z,87850.34
2022-08-03T07:39:14.657Z,87854.38
2022-08-03T07:41:46.158Z,87853.94
2022-08-03T07:44:13.834Z,87853.06
2022-08-03T07:46:41.122Z,87855.59
2022-08-03T07:49:09.216Z,87853.97
2022-08-03T07:51:36.646Z,87856.06
2022-08-03T07:54:04.328Z,87849.44
2022-08-03T07:56:32.160Z,87857.31
2022-08-03T07:58:59.736Z,87852.94
2022-08-03T08:01:27.001Z,87845.59
2022-08-03T08:03:54.735Z,87836.56
2022-08-03T08:06:22.500Z,87848.22
2022-08-03T08:08:49.706Z,87840.78
2022-08-03T08:11:17.291Z,87836.81
2022-08-03T08:13:44.477Z,87838.19
2022-08-03T08:16:11.646Z,87841.03
2022-08-03T08:18:38.869Z,87833.56
2022-08-03T08:21:07.524Z,87843.72
2022-08-03T08:23:43.201Z,87846.56
2022-08-03T08:26:11.684Z,87832.25
2022-08-03T08:28:39.532Z,87839.69
2022-08-03T08:31:07.144Z,87841.44
2022-08-03T08:34:02.211Z,87839.38
2022-08-03T08:36:21.831Z,87839.13
2022-08-03T08:38:49.000Z,87840.97
2022-08-03T08:41:17.367Z,87830.81
2022-08-03T08:43:44.649Z,87834.00
2022-08-03T08:46:23.452Z,87836.56
2022-08-03T08:48:53.838Z,87832.09
2022-08-03T08:51:30.544Z,87836.09
2022-08-03T08:54:21.639Z,87826.78
2022-08-03T08:56:52.465Z,87822.75
2022-08-03T08:59:21.151Z,87814.81
2022-08-03T09:01:48.571Z,87826.09
2022-08-03T09:04:16.149Z,87815.19
2022-08-03T09:06:53.874Z,87815.75
2022-08-03T09:10:12.290Z,87817.16
2022-08-03T09:12:39.121Z,87811.59
2022-08-03T09:15:28.482Z,87817.16
2022-08-03T09:17:57.845Z,87809.34
2022-08-03T09:20:27.843Z,87816.44
2022-08-03T09:23:24.968Z,87806.78
2022-08-03T09:26:00.147Z,87807.09
2022-08-03T09:29:01.152Z,87800.88
2022-08-03T09:31:38.224Z,87799.47
2022-08-03T09:34:13.668Z,87799.91
2022-08-03T09:36:43.895Z,87796.69
2022-08-03T09:39:16.391Z,87796.50
2022-08-03T09:41:47.461Z,87798.97
2022-08-03T09:44:24.537Z,87788.44
2022-08-03T09:46:56.517Z,87789.25
2022-08-03T09:49:25.241Z,87789.91
2022-08-03T09:52:32.367Z,87781.94
2022-08-03T09:54:43.224Z,87789.19
2022-08-03T09:57:26.138Z,87793.59
2022-08-03T10:00:08.296Z,87789.50
2022-08-03T10:02:37.044Z,87786.91
2022-08-03T10:05:25.673Z,87779.00
2022-08-03T10:07:52.895Z,87779.22
2022-08-03T10:10:32.075Z,87776.47
2022-08-03T10:13:01.033Z,87767.53
2022-08-03T10:16:23.346Z,87775.03
2022-08-03T10:18:15.847Z,87773.59
2022-08-03T10:21:10.557Z,87762.16
2022-08-03T10:23:41.319Z,87762.63
2022-08-03T10:26:13.328Z,87764.50
2022-08-03T10:28:53.380Z,87762.66
2022-08-03T10:31:24.110Z,87755.66
2022-08-03T10:33:58.073Z,87747.47
2022-08-03T10:36:30.539Z,87752.03
2022-08-03T10:38:58.243Z,87746.97
2022-08-03T10:41:32.870Z,87748.78
2022-08-03T10:44:14.795Z,87748.25
2022-08-03T10:46:45.150Z,87747.09
2022-08-03T10:49:20.693Z,87749.66
2022-08-03T10:52:13.207Z,87735.28
2022-08-03T10:54:52.469Z,87743.41
2022-08-03T10:57:42.945Z,87733.38
2022-08-03T11:00:11.966Z,87726.75
2022-08-03T11:03:17.787Z,87729.91
2022-08-03T11:05:49.472Z,87730.34
2022-08-03T11:08:31.049Z,87728.66
2022-08-03T11:11:21.253Z,87727.16
2022-08-03T11:14:11.221Z,87723.81
2022-08-03T11:16:49.004Z,87720.00
2022-08-03T11:19:23.779Z,87721.56
2022-08-03T11:22:05.488Z,87717.34
2022-08-03T11:24:38.638Z,87726.47
2022-08-03T11:27:14.827Z,87718.88
2022-08-03T11:30:22.892Z,87714.69
2022-08-03T11:32:58.661Z,87714.25
2022-08-03T11:35:30.362Z,87711.28
2022-08-03T11:38:01.975Z,87704.94
2022-08-03T11:40:41.331Z,87717.38
2022-08-03T11:43:32.071Z,87710.66
2022-08-03T11:46:06.029Z,87699.19
2022-08-03T11:48:41.313Z,87695.19
2022-08-03T11:51:28.572Z,87699.13
2022-08-03T11:54:06.903Z,87692.56
2022-08-03T11:56:49.160Z,87692.84
2022-08-03T11:59:21.689Z,87689.06
2022-08-03T12:01:50.807Z,87694.88
2022-08-03T12:04:18.289Z,87690.44
2022-08-03T12:07:01.644Z,87683.25
2022-08-03T12:09:28.884Z,87679.28
2022-08-03T12:11:59.367Z,87690.50
2022-08-03T12:14:50.917Z,87687.25
2022-08-03T12:17:16.752Z,87679.56
2022-08-03T12:19:45.834Z,87678.13
2022-08-03T12:22:15.679Z,87683.41
2022-08-03T12:24:46.826Z,87673.09
2022-08-03T12:27:25.315Z,87678.09
2022-08-03T12:29:59.295Z,87680.56
2022-08-03T12:32:31.325Z,87673.53
2022-08-03T12:35:00.064Z,87666.31
2022-08-03T12:37:28.049Z,87666.81
2022-08-03T12:40:02.854Z,87672.16
2022-08-03T12:42:35.674Z,87673.38
2022-08-03T12:45:29.674Z,87665.69
2022-08-03T12:48:02.440Z,87662.66
2022-08-03T12:50:36.800Z,87662.25
2022-08-03T12:53:08.869Z,87660.97
2022-08-03T12:56:04.629Z,87670.69
2022-08-03T12:58:36.153Z,87666.88
2022-08-03T13:01:09.632Z,87657.84
2022-08-03T13:03:49.921Z,87657.22
2022-08-03T13:06:26.049Z,87650.59
2022-08-03T13:09:08.297Z,87649.94
2022-08-03T13:11:58.944Z,87650.50
2022-08-03T13:14:23.622Z,87654.53
2022-08-03T13:16:52.138Z,87646.94
2022-08-03T13:19:19.358Z,87654.91
2022-08-03T13:21:53.477Z,87653.47
2022-08-03T13:24:32.593Z,87655.53
2022-08-03T13:27:21.934Z,87646.13
2022-08-03T13:29:48.517Z,87650.78
2022-08-03T13:32:15.770Z,87642.63
2022-08-03T13:34:43.211Z,87643.41
2022-08-03T13:37:10.572Z,87642.19
2022-08-03T13:39:57.244Z,87640.50
2022-08-03T13:42:29.178Z,87633.09
2022-08-03T13:44:56.590Z,87634.59
2022-08-03T13:47:23.927Z,87635.84
2022-08-03T13:49:54.366Z,87629.44
2022-08-03T13:52:34.071Z,87634.66
2022-08-03T13:55:06.757Z,87627.97
2022-08-03T13:58:04.488Z,87627.25
2022-08-03T14:00:28.232Z,87629.50
2022-08-03T14:03:07.958Z,87629.00
2022-08-03T14:05:39.829Z,87622.78
2022-08-03T14:08:08.260Z,87628.50
2022-08-03T14:10:39.502Z,87619.28
2022-08-03T14:13:07.840Z,87622.25
2022-08-03T14:15:38.655Z,87619.00
2022-08-03T14:18:11.991Z,87617.50
2022-08-03T14:20:47.792Z,87615.50
2022-08-03T14:23:20.946Z,87613.97
2022-08-03T14:25:51.812Z,87615.13
2022-08-03T14:28:23.320Z,87612.78
2022-08-03T14:30:55.476Z,87612.75
2022-08-03T14:33:23.364Z,87609.72
2022-08-03T14:35:52.124Z,87611.28
2022-08-03T14:38:19.938Z,87608.56
2022-08-03T14:40:48.408Z,87605.28
2022-08-03T14:43:17.093Z,87608.41
2022-08-03T14:45:52.307Z,87601.41
2022-08-03T14:50:38.284Z,87593.88
2022-08-03T14:51:55.094Z,87599.59
2022-08-03T14:54:23.660Z,87608.53
2022-08-03T14:56:51.275Z,87597.38
2022-08-03T15:00:21.633Z,87598.34
2022-08-03T15:06:51.281Z,87603.81
2022-08-03T15:09:23.816Z,87602.53
2022-08-03T15:11:51.414Z,87592.06
2022-08-03T15:14:28.275Z,87595.50
2022-08-03T15:17:00.586Z,87596.47
2022-08-03T15:20:03.360Z,87592.97
2022-08-03T15:22:15.007Z,87590.53
2022-08-03T15:24:49.494Z,87594.75
2022-08-03T15:27:16.723Z,87587.81
2022-08-03T15:30:06.832Z,87589.31
2022-08-03T15:32:31.002Z,87595.03
2022-08-03T15:34:58.116Z,87591.06
2022-08-03T15:37:25.938Z,87595.78
2022-08-03T15:40:06.659Z,87599.56
2022-08-03T15:42:34.232Z,87600.09
2022-08-03T15:45:01.556Z,87592.97
2022-08-03T15:47:28.900Z,87593.88
2022-08-03T15:49:56.290Z,87599.94
2022-08-03T15:52:23.838Z,87591.28
2022-08-03T15:55:01.603Z,87589.31
2022-08-03T15:57:28.812Z,87599.03
2022-08-03T15:59:56.001Z,87579.31
2022-08-03T16:02:23.260Z,87588.03
2022-08-03T16:04:50.600Z,87578.41
2022-08-03T16:07:18.076Z,87588.31
2022-08-03T16:09:45.398Z,87586.81
2022-08-03T16:12:16.186Z,87586.28
2022-08-03T16:14:52.326Z,87589.25
2022-08-03T16:17:23.078Z,87583.03
2022-08-03T16:19:54.722Z,87589.97
2022-08-03T16:22:23.916Z,87586.28
2022-08-03T16:24:53.449Z,87594.94
2022-08-03T16:27:37.465Z,87591.94
2022-08-03T16:30:12.575Z,87598.63
2022-08-03T16:32:39.762Z,87596.13
2022-08-03T16:35:08.406Z,87590.66
2022-08-03T16:37:38.721Z,87598.56
2022-08-03T16:40:19.316Z,87599.22
2022-08-03T16:42:47.382Z,87603.81
2022-08-03T16:45:15.029Z,87600.75
2022-08-03T16:48:05.211Z,87601.09
2022-08-03T16:50:35.282Z,87602.44
2022-08-03T16:53:06.355Z,87599.81
2022-08-03T16:59:36.581Z,87602.09
2022-08-03T17:02:09.903Z,87601.19
2022-08-03T17:04:40.406Z,87600.06
2022-08-03T17:07:19.322Z,87604.63
2022-08-03T17:09:48.757Z,87608.63
2022-08-03T17:12:18.009Z,87609.97
2022-08-03T17:14:45.473Z,87609.06
2022-08-03T17:17:28.054Z,87605.22
2022-08-03T17:19:58.748Z,87616.41
2022-08-03T17:22:37.041Z,87617.47
2022-08-03T17:25:09.785Z,87622.69
2022-08-03T17:28:51.174Z,87618.88
2022-08-03T17:30:40.765Z,87624.88
2022-08-03T17:33:18.767Z,87622.56
2022-08-03T17:35:47.988Z,87623.16
2022-08-03T17:38:22.450Z,87628.41
2022-08-03T17:40:52.223Z,87634.94
2022-08-03T17:44:13.708Z,87638.28
2022-08-03T17:46:10.943Z,87639.13
2022-08-03T17:48:42.662Z,87635.28
2022-08-03T17:51:33.602Z,87646.19
2022-08-03T17:54:20.080Z,87648.50
2022-08-03T17:57:21.826Z,87645.88
2022-08-03T18:00:14.598Z,87652.59
2022-08-03T18:03:15.649Z,87650.97
2022-08-03T18:06:12.866Z,87665.78
2022-08-03T18:08:58.182Z,87666.41
2022-08-03T18:11:35.521Z,87677.44
2022-08-03T18:14:32.283Z,87668.63
2022-08-03T18:17:05.906Z,87671.97
2022-08-03T18:22:27.925Z,87676.09
2022-08-03T18:25:00.326Z,87678.41
2022-08-03T18:27:45.620Z,87678.44
2022-08-03T18:30:15.393Z,87679.97
2022-08-03T18:32:44.297Z,87691.41
2022-08-03T18:35:53.832Z,87688.75
2022-08-03T18:38:18.793Z,87688.06
2022-08-03T18:40:48.614Z,87693.31
2022-08-03T18:43:16.540Z,87699.81
2022-08-03T18:45:57.794Z,87697.44
2022-08-03T18:48:48.572Z,87705.09
2022-08-03T18:51:28.788Z,87713.94
2022-08-03T18:54:58.195Z,87710.97
2022-08-03T18:57:22.368Z,87718.34
2022-08-03T19:00:12.420Z,87729.00
2022-08-03T19:02:59.576Z,87723.16
2022-08-03T19:05:53.709Z,87726.03
2022-08-03T19:08:41.223Z,87735.16
2022-08-03T19:11:15.397Z,87737.72
2022-08-03T19:13:50.948Z,87751.22
2022-08-03T19:16:31.117Z,87754.19
2022-08-03T19:19:00.650Z,87754.47
2022-08-03T19:21:33.385Z,87754.19
2022-08-03T19:24:07.900Z,87754.78
2022-08-03T19:26:39.001Z,87756.13
2022-08-03T19:29:10.787Z,87764.66
2022-08-03T19:31:58.882Z,87765.72
2022-08-03T19:34:30.270Z,87769.00
2022-08-03T19:36:59.100Z,87768.38
2022-08-03T19:39:27.870Z,87769.28
2022-08-03T19:42:18.462Z,87766.28
2022-08-03T19:44:56.459Z,87765.38
2022-08-03T19:47:36.528Z,87765.19
2022-08-03T19:50:13.784Z,87769.53
2022-08-03T19:52:47.029Z,87776.25
2022-08-03T19:55:18.235Z,87774.00
2022-08-03T19:57:53.645Z,87772.16
2022-08-03T20:00:26.561Z,87772.44
2022-08-03T20:02:58.471Z,87773.78
2022-08-03T20:05:27.200Z,87778.25
2022-08-03T20:08:00.217Z,87779.69
2022-08-03T20:10:31.457Z,87780.59
2022-08-03T20:12:59.787Z,87782.34
2022-08-03T20:15:31.610Z,87791.91
2022-08-03T20:18:00.100Z,87782.91
2022-08-03T20:20:37.294Z,87784.81
2022-08-03T20:23:16.284Z,87790.00
2022-08-03T20:25:59.010Z,87788.28
2022-08-03T20:28:32.883Z,87793.50
2022-08-03T20:31:01.943Z,87789.56
2022-08-03T20:33:46.633Z,87792.06
2022-08-03T20:36:18.831Z,87787.69
2022-08-03T20:38:48.250Z,87788.25
2022-08-03T20:41:17.601Z,87785.97
2022-08-03T20:43:46.116Z,87786.13
2022-08-03T20:46:29.504Z,87784.44
2022-08-03T20:51:53.571Z,87789.53
2022-08-03T20:54:31.242Z,87790.44
2022-08-03T20:57:04.362Z,87792.91
2022-08-03T20:59:50.582Z,87797.44
2022-08-03T21:02:29.545Z,87798.88
2022-08-03T21:05:08.622Z,87796.72
2022-08-03T21:08:04.836Z,87796.94
2022-08-03T21:10:39.430Z,87807.19
2022-08-03T21:13:08.186Z,87672.34
2022-08-03T21:13:13.764Z,87781.66
2022-08-03T21:13:45.937Z,87803.97
2022-08-03T21:16:15.367Z,87806.75
2022-08-03T21:18:48.986Z,87806.44
2022-08-03T21:21:22.488Z,87812.72
2022-08-03T21:23:54.953Z,87809.81
2022-08-03T21:26:25.619Z,87810.66
2022-08-03T21:29:01.812Z,87803.47
2022-08-03T21:31:29.214Z,87809.16
2022-08-03T21:34:00.777Z,87811.09
2022-08-03T21:36:30.955Z,87808.94
2022-08-03T21:39:00.274Z,87809.81
2022-08-03T21:41:32.018Z,87814.22
2022-08-03T21:44:01.734Z,87817.84
2022-08-03T21:46:35.402Z,87811.19
2022-08-03T21:50:05.316Z,87819.03
2022-08-03T21:51:59.046Z,87817.31
2022-08-03T21:54:42.744Z,87819.44
2022-08-03T21:57:20.380Z,87824.63
2022-08-03T22:00:27.385Z,87824.38
2022-08-03T22:02:59.646Z,87828.78
2022-08-03T22:05:44.277Z,87826.94
2022-08-03T22:08:13.900Z,87830.06
2022-08-03T22:10:44.593Z,87830.16
2022-08-03T22:13:23.337Z,87849.03
2022-08-03T22:16:06.473Z,87837.34
2022-08-03T22:18:41.320Z,87835.19
2022-08-03T22:21:12.439Z,87834.50
2022-08-03T22:23:44.957Z,87827.38
2022-08-03T22:26:32.275Z,87829.41
2022-08-03T22:29:07.372Z,87833.38
2022-08-03T22:31:59.209Z,87835.41
2022-08-03T22:34:28.473Z,87829.06
2022-08-03T22:37:02.752Z,87836.09
2022-08-03T22:39:31.082Z,87835.78
2022-08-03T22:42:05.319Z,87839.28
2022-08-03T22:44:35.250Z,87834.13
2022-08-03T22:47:04.877Z,87848.06
2022-08-03T22:49:35.066Z,87850.06
2022-08-03T22:52:03.073Z,87853.59
2022-08-03T22:54:32.307Z,87848.66
2022-08-03T22:57:00.294Z,87854.41
2022-08-03T22:59:41.330Z,87858.81
2022-08-03T23:02:20.885Z,87853.50
2022-08-03T23:05:03.531Z,87855.63
2022-08-03T23:07:34.377Z,87851.91
2022-08-03T23:10:05.834Z,87858.13
2022-08-03T23:12:37.562Z,87854.03
2022-08-03T23:15:10.484Z,87858.72
2022-08-03T23:18:00.215Z,87860.38
2022-08-03T23:20:29.502Z,87863.53
2022-08-03T23:22:59.024Z,87864.41
2022-08-03T23:25:27.195Z,87871.00
2022-08-03T23:28:05.546Z,87869.66
2022-08-03T23:30:37.406Z,87872.81
2022-08-03T23:33:06.653Z,87868.72
2022-08-03T23:36:20.046Z,87864.97
2022-08-03T23:38:30.323Z,87865.88
2022-08-03T23:41:00.772Z,87865.13
2022-08-03T23:43:45.238Z,87861.69
2022-08-03T23:46:24.016Z,87862.50
2022-08-03T23:48:51.593Z,87862.59
2022-08-03T23:51:44.835Z,87867.28
2022-08-03T23:54:32.806Z,87865.50
2022-08-03T23:57:31.820Z,87866.03
